createdAt,value
2022-09-12T14:16:39.332Z,93.8
2022-09-12T14:27:39.212Z,99.8
2022-09-12T14:28:43.606Z,89.1
2022-09-12T14:29:48.079Z,87.5
2022-09-12T14:30:52.470Z,85.1
2022-09-12T14:31:59.129Z,85.4
2022-09-12T14:33:03.535Z,84.4
2022-09-12T14:34:07.882Z,84.8
2022-09-12T14:35:12.223Z,84.8
2022-09-12T14:36:16.585Z,87.1
2022-09-12T14:37:23.084Z,88.1
2022-09-12T14:38:27.443Z,85.1
2022-09-12T14:39:31.710Z,82
2022-09-12T14:40:36.025Z,79.7
2022-09-12T14:41:40.342Z,80.2
2022-09-12T14:42:47.087Z,80.4
2022-09-12T14:43:51.444Z,77.6
2022-09-12T14:44:55.766Z,77.3
2022-09-12T14:46:00.236Z,78.3
2022-09-12T14:48:12.083Z,80.9
2022-09-12T14:50:25.947Z,83.3
2022-09-12T14:51:30.281Z,85.2
2022-09-12T14:52:34.646Z,85.7
2022-09-12T14:53:41.097Z,86.4
2022-09-12T14:54:45.531Z,88.5
2022-09-12T14:55:49.856Z,89.1
2022-09-12T14:56:54.184Z,92.1
2022-09-12T14:57:58.516Z,91.6
2022-09-12T14:59:05.081Z,91.3
2022-09-12T15:00:09.517Z,91
2022-09-12T15:01:13.969Z,91.4
2022-09-12T15:02:18.495Z,94.6
2022-09-12T15:03:22.877Z,95.1
2022-09-12T15:04:30.134Z,92.3
2022-09-12T15:05:34.577Z,93.5
2022-09-12T15:06:38.910Z,95
2022-09-12T15:07:43.248Z,94.3
2022-09-12T15:08:47.602Z,95.5
2022-09-12T15:09:54.095Z,94.9
2022-09-12T15:10:58.440Z,96.7
2022-09-12T15:12:02.797Z,96.7
2022-09-12T15:13:07.142Z,98
2022-09-12T15:14:11.472Z,100
2022-09-12T15:15:18.085Z,100
2022-09-12T15:16:22.557Z,100
2022-09-12T15:18:31.580Z,100
2022-09-12T15:20:46.878Z,100
2022-09-12T15:21:51.223Z,100
2022-09-12T15:22:55.535Z,100
2022-09-12T15:23:59.901Z,100
2022-09-12T15:25:04.223Z,100
2022-09-12T15:26:11.138Z,100
2022-09-12T15:27:15.502Z,100
2022-09-12T15:28:19.938Z,100
2022-09-12T15:29:24.273Z,100
2022-09-12T15:30:28.634Z,100
2022-09-12T15:31:35.227Z,100
2022-09-12T15:32:39.710Z,100
2022-09-12T15:33:44.132Z,100
2022-09-12T15:34:48.748Z,100
2022-09-12T15:35:53.114Z,100
2022-09-12T15:37:00.089Z,100
2022-09-12T15:38:04.418Z,100
2022-09-12T15:39:08.749Z,100
2022-09-12T16:13:06.067Z,100
2022-09-12T16:21:45.689Z,100
